Time;durP1;ratioP1;P1;durP2;ratioP2;P2;SDS_P1;SDS_P2;PMS_P1;PMS_P2;Temp;Humidity;BMP_temperature;BMP_pressure;BME280_temperature;BME280_humidity;BME280_pressure;Samples;Min_cycle;Max_cycle;Signal;HPM_P1;HPM_P2
2022/02/13 00:00:47;;;;;;;11.63;8.10;;;2.80;99.90;;;;;;6243415;22;20022;-82
2022/02/13 00:03:13;;;;;;;13.00;7.70;;;2.70;99.90;;;;;;6191717;22;20022;-80
2022/02/13 00:05:39;;;;;;;15.07;7.60;;;2.70;99.90;;;;;;6217390;22;20094;-81
2022/02/13 00:08:08;;;;;;;15.02;8.85;;;2.70;99.90;;;;;;6217806;22;20027;-80
2022/02/13 00:10:34;;;;;;;11.17;7.57;;;2.60;99.90;;;;;;6191943;22;20011;-81
2022/02/13 00:13:00;;;;;;;14.03;8.20;;;2.60;99.90;;;;;;6192778;22;20209;-82
2022/02/13 00:15:26;;;;;;;15.93;8.93;;;2.50;99.90;;;;;;6219568;22;20016;-81
2022/02/13 00:17:52;;;;;;;10.67;7.73;;;2.60;99.90;;;;;;6193988;22;20031;-81
2022/02/13 00:20:18;;;;;;;13.37;8.50;;;2.60;99.90;;;;;;6244759;22;20265;-82
2022/02/13 00:22:44;;;;;;;14.80;8.87;;;2.50;99.90;;;;;;6243780;22;20012;-81
2022/02/13 00:25:10;;;;;;;11.77;8.23;;;2.50;99.90;;;;;;6218736;22;20027;-84
2022/02/13 00:27:37;;;;;;;12.17;8.00;;;2.50;99.90;;;;;;6219447;22;20024;-82
2022/02/13 00:30:03;;;;;;;12.27;8.50;;;2.50;99.90;;;;;;6193534;22;20016;-82
2022/02/13 00:32:29;;;;;;;11.10;8.10;;;2.50;99.90;;;;;;6244176;22;20075;-80
2022/02/13 00:34:55;;;;;;;14.30;8.50;;;2.50;99.90;;;;;;6218770;22;20019;-82
2022/02/13 00:37:21;;;;;;;13.60;8.30;;;2.40;99.90;;;;;;6219672;22;20039;-83
2022/02/13 00:39:47;;;;;;;10.60;7.63;;;2.50;99.90;;;;;;6193240;22;20019;-82
2022/02/13 00:42:13;;;;;;;13.73;7.93;;;2.40;99.90;;;;;;6218959;22;20023;-81
2022/02/13 00:44:39;;;;;;;12.10;7.80;;;2.40;99.90;;;;;;6168951;22;20027;-82
2022/02/13 00:47:05;;;;;;;13.10;8.40;;;2.40;99.90;;;;;;6169369;22;20015;-82
2022/02/13 00:49:31;;;;;;;12.60;8.63;;;2.40;99.90;;;;;;6218932;22;20065;-82
2022/02/13 00:52:00;;;;;;;11.87;8.37;;;2.50;99.90;;;;;;6219499;22;20020;-82
2022/02/13 00:54:26;;;;;;;12.93;8.30;;;2.50;99.90;;;;;;6195655;22;20049;-82
2022/02/13 00:56:51;;;;;;;13.87;9.10;;;2.50;99.90;;;;;;6218605;22;20043;-82
2022/02/13 00:59:17;;;;;;;13.73;8.47;;;2.40;99.90;;;;;;6194619;22;20531;-82
2022/02/13 01:01:43;;;;;;;13.90;8.53;;;2.40;99.90;;;;;;6244533;22;20016;-83
2022/02/13 01:04:09;;;;;;;12.03;8.70;;;2.40;99.90;;;;;;6193686;22;20479;-83
2022/02/13 01:06:35;;;;;;;12.97;8.23;;;2.40;99.90;;;;;;6194678;22;20016;-82
2022/02/13 01:09:01;;;;;;;13.07;8.30;;;2.40;99.90;;;;;;6218355;22;20115;-82
2022/02/13 01:11:30;;;;;;;13.50;9.03;;;2.40;99.90;;;;;;6169543;22;20393;-80
2022/02/13 01:13:55;;;;;;;14.83;9.20;;;2.30;99.90;;;;;;6193233;22;20022;-82
2022/02/13 01:16:21;;;;;;;14.60;9.37;;;2.30;99.90;;;;;;6218672;22;20051;-83
2022/02/13 01:18:47;;;;;;;11.63;8.40;;;2.40;99.90;;;;;;6243368;22;20018;-82
2022/02/13 01:21:13;;;;;;;12.37;9.00;;;2.30;99.90;;;;;;6219115;22;20475;-80
2022/02/13 01:23:43;;;;;;;13.50;8.77;;;2.20;99.90;;;;;;6218429;22;20437;-82
2022/02/13 01:26:10;;;;;;;13.52;8.98;;;2.20;99.90;;;;;;6218762;22;20016;-82
2022/02/13 01:28:37;;;;;;;14.97;8.83;;;2.20;99.90;;;;;;6244811;22;20016;-82
2022/02/13 01:31:04;;;;;;;12.70;8.73;;;2.20;99.90;;;;;;6193659;22;20427;-83
2022/02/13 01:33:30;;;;;;;13.87;8.83;;;2.10;99.90;;;;;;6218356;22;20023;-82
2022/02/13 01:35:57;;;;;;;16.73;9.23;;;2.20;99.90;;;;;;6193393;22;20078;-82
2022/02/13 01:38:23;;;;;;;13.07;8.93;;;2.20;99.90;;;;;;6217408;22;20403;-80
2022/02/13 01:40:50;;;;;;;16.03;9.00;;;2.10;99.90;;;;;;6210890;23;20046;-82
2022/02/13 01:43:16;;;;;;;14.03;9.17;;;2.20;99.90;;;;;;6237258;23;20089;-82
2022/02/13 01:45:42;;;;;;;14.93;9.30;;;2.10;99.90;;;;;;6236389;23;20519;-82
2022/02/13 01:48:08;;;;;;;14.60;9.17;;;2.10;99.90;;;;;;6236744;23;20322;-82
2022/02/13 01:50:38;;;;;;;13.37;9.63;;;2.10;99.90;;;;;;6212966;23;20483;-82
2022/02/13 01:53:04;;;;;;;;;;;2.10;99.90;;;;;;6213685;23;20016;-82
2022/02/13 01:55:30;;;;;;;15.10;10.13;;;2.00;99.90;;;;;;6238311;23;19921;-82
2022/02/13 01:57:57;;;;;;;13.70;9.60;;;2.00;99.90;;;;;;6238352;23;20541;-80
2022/02/13 02:00:25;;;;;;;13.80;9.73;;;2.00;99.90;;;;;;6189350;23;20024;-80
2022/02/13 02:02:51;;;;;;;15.27;9.30;;;2.00;99.90;;;;;;6238571;23;20043;-83
2022/02/13 02:05:17;;;;;;;15.40;9.53;;;2.00;99.90;;;;;;6212181;23;20016;-81
2022/02/13 02:07:43;;;;;;;14.80;8.90;;;1.90;99.90;;;;;;6212682;23;20023;-81
2022/02/13 02:10:09;;;;;;;12.40;9.30;;;2.00;99.90;;;;;;6237779;23;20082;-80
2022/02/13 02:12:35;;;;;;;16.77;9.17;;;2.00;99.90;;;;;;6212973;23;20027;-82
2022/02/13 02:15:02;;;;;;;15.83;9.20;;;1.90;99.90;;;;;;6211869;23;20031;-80
2022/02/13 02:17:28;;;;;;;17.73;9.53;;;1.90;99.90;;;;;;6212151;23;20016;-80
2022/02/13 02:19:54;;;;;;;15.27;9.40;;;1.90;99.90;;;;;;6212794;23;20055;-80
2022/02/13 02:22:20;;;;;;;13.63;9.23;;;1.90;99.90;;;;;;6210784;23;20469;-79
2022/02/13 02:24:46;;;;;;;12.47;9.27;;;1.80;99.90;;;;;;6211675;23;20078;-80
2022/02/13 02:27:13;;;;;;;14.03;9.80;;;1.90;99.90;;;;;;6212280;23;20016;-80
2022/02/13 02:29:39;;;;;;;15.43;10.47;;;1.80;99.90;;;;;;6238330;23;20085;-81
2022/02/13 02:32:05;;;;;;;15.87;9.77;;;1.90;99.90;;;;;;6212698;23;20024;-80
2022/02/13 02:34:31;;;;;;;14.80;10.00;;;1.80;99.90;;;;;;6212387;23;20012;-80
2022/02/13 02:36:57;;;;;;;14.40;9.40;;;1.90;99.90;;;;;;6188207;23;20534;-79
2022/02/13 02:39:23;;;;;;;15.53;9.47;;;1.80;99.90;;;;;;6212402;23;20028;-80
2022/02/13 02:41:49;;;;;;;15.20;9.70;;;1.80;99.90;;;;;;6216690;22;20019;-80
2022/02/13 02:44:15;;;;;;;14.13;9.37;;;1.80;99.90;;;;;;6215933;22;20027;-80
2022/02/13 02:46:41;;;;;;;15.13;9.90;;;1.80;99.90;;;;;;6192227;22;20019;-80
2022/02/13 02:49:07;;;;;;;14.27;9.47;;;1.80;99.90;;;;;;6167335;22;20019;-82
2022/02/13 02:51:33;;;;;;;16.57;9.90;;;1.70;99.90;;;;;;6168205;22;20015;-80
2022/02/13 02:53:58;;;;;;;14.27;9.73;;;1.70;99.90;;;;;;6214766;22;20023;-79
2022/02/13 02:56:24;;;;;;;15.60;10.37;;;1.70;99.90;;;;;;6241840;22;20063;-81
2022/02/13 02:58:50;;;;;;;14.63;10.87;;;1.60;99.90;;;;;;6192297;22;20016;-81
2022/02/13 03:01:16;;;;;;;14.13;10.57;;;1.70;99.90;;;;;;6190612;22;20070;-81
2022/02/13 03:03:42;;;;;;;11.43;9.13;;;1.70;99.90;;;;;;6214791;22;20087;-80
2022/02/13 03:06:11;;;;;;;16.07;10.10;;;1.70;99.90;;;;;;6194321;22;20015;-80
2022/02/13 03:08:37;;;;;;;14.77;9.50;;;1.60;99.90;;;;;;6192653;22;20097;-80
2022/02/13 03:11:06;;;;;;;14.93;9.97;;;1.60;99.90;;;;;;6217727;22;20016;-81
2022/02/13 03:13:32;;;;;;;13.47;9.57;;;1.60;99.90;;;;;;6193326;22;20016;-80
2022/02/13 03:16:01;;;;;;;15.03;9.93;;;1.60;99.90;;;;;;6192425;22;20020;-79
2022/02/13 03:18:30;;;;;;;16.23;10.40;;;1.50;99.90;;;;;;6217811;22;20107;-81
2022/02/13 03:21:00;;;;;;;14.83;10.40;;;1.60;99.90;;;;;;6195260;22;20012;-80
2022/02/13 03:23:26;;;;;;;14.75;10.57;;;1.60;99.90;;;;;;6195905;22;20107;-81
2022/02/13 03:25:52;;;;;;;16.90;10.40;;;1.50;99.90;;;;;;6244151;22;20026;-81
2022/02/13 03:28:18;;;;;;;15.37;10.30;;;1.50;99.90;;;;;;6244405;22;20126;-81
2022/02/13 03:30:45;;;;;;;15.23;10.53;;;1.60;99.90;;;;;;6220558;22;20062;-82
2022/02/13 03:33:11;;;;;;;14.57;10.23;;;1.40;99.90;;;;;;6217109;22;20012;-81
2022/02/13 03:35:38;;;;;;;14.30;10.63;;;1.40;99.90;;;;;;6245159;22;20032;-81
2022/02/13 03:38:04;;;;;;;12.57;9.73;;;1.40;99.90;;;;;;6194284;22;20071;-80
2022/02/13 03:40:31;;;;;;;15.33;10.27;;;1.30;99.90;;;;;;6218884;22;20468;-81
2022/02/13 03:42:57;;;;;;;14.57;11.23;;;1.30;99.90;;;;;;6194562;22;20073;-81
2022/02/13 03:45:26;;;;;;;16.63;11.00;;;1.30;99.90;;;;;;6171861;22;20021;-82
2022/02/13 03:47:52;;;;;;;15.27;10.63;;;1.30;99.90;;;;;;6219513;22;20391;-82
2022/02/13 03:50:18;;;;;;;17.77;11.20;;;1.20;99.90;;;;;;6170021;22;20024;-82
2022/02/13 03:52:44;;;;;;;15.43;10.57;;;1.30;99.90;;;;;;6194371;22;20464;-81
2022/02/13 03:55:13;;;;;;;14.73;10.63;;;1.30;99.90;;;;;;6244673;22;20069;-85
2022/02/13 03:57:39;;;;;;;12.57;10.23;;;1.30;99.90;;;;;;6244872;22;20011;-85
2022/02/13 04:00:07;;;;;;;14.50;10.53;;;1.30;99.90;;;;;;6194253;22;20590;-84
2022/02/13 04:02:33;;;;;;;14.93;10.17;;;1.30;99.90;;;;;;6244979;22;20012;-85
2022/02/13 04:04:59;;;;;;;16.97;10.73;;;1.30;99.90;;;;;;6219747;22;20051;-81
2022/02/13 04:07:25;;;;;;;12.60;10.43;;;1.30;99.90;;;;;;6195198;22;20027;-81
2022/02/13 04:09:51;;;;;;;15.33;11.57;;;1.30;99.90;;;;;;6194281;22;20016;-81
2022/02/13 04:12:16;;;;;;;15.13;11.03;;;1.30;99.90;;;;;;6194354;22;20322;-82
2022/02/13 04:14:43;;;;;;;16.63;11.57;;;1.30;99.90;;;;;;6194087;22;20030;-81
2022/02/13 04:17:08;;;;;;;15.80;11.03;;;1.30;99.90;;;;;;6192826;22;20051;-82
2022/02/13 04:19:34;;;;;;;15.03;10.90;;;1.30;99.90;;;;;;6218547;22;20333;-81
2022/02/13 04:22:00;;;;;;;14.83;10.57;;;1.30;99.90;;;;;;6193258;22;20392;-82
2022/02/13 04:24:26;;;;;;;13.80;10.87;;;1.30;99.90;;;;;;6167533;22;20461;-81
2022/02/13 04:26:52;;;;;;;16.70;11.37;;;1.20;99.90;;;;;;6243040;22;20073;-81
2022/02/13 04:29:18;;;;;;;15.33;10.40;;;1.20;99.90;;;;;;6168374;22;20094;-82
2022/02/13 04:31:44;;;;;;;13.27;10.80;;;1.20;99.90;;;;;;6218442;22;20444;-82
2022/02/13 04:34:11;;;;;;;15.03;11.30;;;1.20;99.90;;;;;;6217619;22;20055;-81
2022/02/13 04:36:37;;;;;;;12.90;10.33;;;1.20;99.90;;;;;;6243444;22;20020;-83
2022/02/13 04:39:05;;;;;;;17.03;11.63;;;1.20;99.90;;;;;;6193200;22;20022;-82
2022/02/13 04:41:31;;;;;;;16.97;11.17;;;1.20;99.90;;;;;;6192615;22;20015;-80
2022/02/13 04:44:00;;;;;;;14.00;11.13;;;1.20;99.90;;;;;;6217461;22;20027;-82
2022/02/13 04:46:26;;;;;;;19.83;11.33;;;1.20;99.90;;;;;;6192981;22;20022;-82
2022/02/13 04:48:51;;;;;;;14.70;11.27;;;1.20;99.90;;;;;;6218021;22;20090;-85
2022/02/13 04:51:17;;;;;;;15.40;10.70;;;1.20;99.90;;;;;;6192899;22;20024;-85
2022/02/13 04:53:44;;;;;;;14.70;11.00;;;1.20;99.90;;;;;;6217776;22;20019;-85
2022/02/13 04:56:10;;;;;;;13.70;10.20;;;1.20;99.90;;;;;;6217898;22;20022;-82
2022/02/13 04:58:35;;;;;;;17.13;10.90;;;1.10;99.90;;;;;;6217863;22;20527;-82
2022/02/13 05:01:01;;;;;;;13.00;10.57;;;1.10;99.90;;;;;;6192650;22;20074;-81
2022/02/13 05:03:28;;;;;;;13.33;10.90;;;1.00;99.90;;;;;;6217924;22;20016;-81
2022/02/13 05:05:54;;;;;;;18.73;11.63;;;1.00;99.90;;;;;;6218970;22;20020;-81
2022/02/13 05:08:21;;;;;;;14.53;11.60;;;1.10;99.90;;;;;;6244069;22;20023;-81
2022/02/13 05:10:47;;;;;;;15.67;10.90;;;1.00;99.90;;;;;;6243829;22;20412;-81
2022/02/13 05:13:13;;;;;;;13.37;11.20;;;1.00;99.90;;;;;;6219014;22;20046;-81
2022/02/13 05:15:39;;;;;;;14.23;11.13;;;1.00;99.90;;;;;;6243616;22;20016;-82
2022/02/13 05:18:05;;;;;;;12.80;10.70;;;1.00;99.90;;;;;;6218311;22;20050;-82
2022/02/13 05:20:31;;;;;;;15.27;11.23;;;1.00;99.90;;;;;;6243938;22;20069;-81
2022/02/13 05:23:00;;;;;;;16.63;11.40;;;1.10;99.90;;;;;;6218032;22;20022;-82
2022/02/13 05:25:26;;;;;;;15.13;11.63;;;1.00;99.90;;;;;;6194010;22;20031;-80
2022/02/13 05:27:52;;;;;;;14.47;10.93;;;0.90;99.90;;;;;;6193730;22;20016;-81
2022/02/13 05:30:18;;;;;;;13.07;10.30;;;0.90;99.90;;;;;;6194598;22;20024;-81
2022/02/13 05:32:47;;;;;;;15.17;10.73;;;1.00;99.90;;;;;;6194121;22;20062;-82
2022/02/13 05:35:13;;;;;;;15.90;11.20;;;1.10;99.90;;;;;;6194553;22;20073;-81
2022/02/13 05:37:39;;;;;;;13.63;10.97;;;0.90;99.90;;;;;;6219578;22;20023;-81
2022/02/13 05:40:06;;;;;;;14.43;11.57;;;1.00;99.90;;;;;;6218012;22;20038;-82
2022/02/13 05:42:32;;;;;;;15.27;10.63;;;0.90;99.90;;;;;;6194154;22;20024;-82
2022/02/13 05:44:58;;;;;;;16.23;11.23;;;0.90;99.90;;;;;;6194488;22;20016;-82
2022/02/13 05:47:24;;;;;;;13.60;10.93;;;0.90;99.90;;;;;;6219229;22;20020;-80
2022/02/13 05:49:50;;;;;;;15.33;11.07;;;1.00;99.90;;;;;;6193762;22;20023;-81
2022/02/13 05:52:16;;;;;;;15.73;11.60;;;1.00;99.90;;;;;;6219581;22;20026;-81
2022/02/13 05:54:42;;;;;;;14.73;10.87;;;1.00;99.90;;;;;;6218664;22;20091;-80
2022/02/13 05:57:08;;;;;;;15.90;11.13;;;1.00;99.90;;;;;;6244241;22;20460;-81
2022/02/13 05:59:34;;;;;;;15.13;11.30;;;0.90;99.90;;;;;;6219627;22;20023;-81
2022/02/13 06:01:59;;;;;;;14.00;10.70;;;1.00;99.90;;;;;;6168569;22;20440;-82
2022/02/13 06:04:25;;;;;;;16.60;12.30;;;1.00;99.90;;;;;;6193579;22;20467;-81
2022/02/13 06:06:53;;;;;;;17.27;11.23;;;1.00;99.90;;;;;;6192798;22;20011;-81
2022/02/13 06:09:20;;;;;;;13.17;10.50;;;1.00;99.90;;;;;;6219053;22;20047;-81
2022/02/13 06:11:46;;;;;;;16.03;10.17;;;1.00;99.90;;;;;;6193726;22;20019;-81
2022/02/13 06:14:12;;;;;;;14.77;10.97;;;0.90;99.90;;;;;;6218244;22;20330;-80
2022/02/13 06:16:39;;;;;;;13.57;11.10;;;1.10;99.90;;;;;;6217880;22;20348;-82
2022/02/13 06:19:06;;;;;;;18.50;11.60;;;1.00;99.90;;;;;;6218068;22;20012;-80
2022/02/13 06:21:32;;;;;;;15.30;10.93;;;1.00;99.90;;;;;;6243744;22;20015;-81
2022/02/13 06:24:01;;;;;;;15.67;11.27;;;1.00;99.90;;;;;;6192224;22;20046;-82
2022/02/13 06:26:31;;;;;;;13.57;11.03;;;1.00;99.90;;;;;;6218354;22;20019;-81
2022/02/13 06:28:57;;;;;;;14.97;11.03;;;1.00;99.90;;;;;;6244079;22;20068;-81
2022/02/13 06:31:22;;;;;;;14.73;10.67;;;1.00;99.90;;;;;;6219113;22;20333;-81
2022/02/13 06:33:51;;;;;;;13.13;11.00;;;1.00;99.90;;;;;;6242227;22;20050;-80
2022/02/13 06:36:17;;;;;;;15.30;10.93;;;1.00;99.90;;;;;;6193119;22;20026;-80
2022/02/13 06:38:43;;;;;;;14.67;10.80;;;1.00;99.90;;;;;;6192912;22;20023;-81
2022/02/13 06:41:09;;;;;;;14.40;11.40;;;0.90;99.90;;;;;;6217349;22;20267;-82
2022/02/13 06:43:35;;;;;;;14.63;11.07;;;1.10;99.90;;;;;;6218130;22;20519;-81
2022/02/13 06:46:01;;;;;;;13.13;10.27;;;1.10;99.90;;;;;;6193182;22;20052;-83
2022/02/13 06:48:31;;;;;;;15.20;11.47;;;1.10;99.90;;;;;;6193044;22;20026;-81
2022/02/13 06:50:58;;;;;;;12.82;10.52;;;1.10;99.90;;;;;;6193466;22;20520;-81
2022/02/13 06:53:24;;;;;;;13.07;10.40;;;1.20;99.90;;;;;;6193027;22;20023;-81
2022/02/13 06:56:11;;;;;;;12.47;10.60;;;1.20;99.90;;;;;;6194263;22;20019;-82
2022/02/13 06:58:36;;;;;;;14.50;10.13;;;1.20;99.90;;;;;;6220151;22;20020;-81
2022/02/13 07:01:02;;;;;;;14.77;10.33;;;1.30;99.90;;;;;;6220214;22;20027;-83
2022/02/13 07:03:28;;;;;;;15.17;10.77;;;1.30;99.90;;;;;;6194538;22;20015;-81
2022/02/13 07:05:54;;;;;;;13.97;10.83;;;1.40;99.90;;;;;;6170262;22;20137;-83
2022/02/13 07:08:20;;;;;;;12.87;10.23;;;1.40;99.90;;;;;;6219886;22;20028;-81
2022/02/13 07:10:46;;;;;;;14.00;10.00;;;1.50;99.90;;;;;;6219723;22;20024;-80
2022/02/13 07:13:12;;;;;;;11.07;9.37;;;1.50;99.90;;;;;;6170816;22;20016;-81
2022/02/13 07:15:37;;;;;;;13.13;10.67;;;1.50;99.90;;;;;;6195755;22;20352;-84
2022/02/13 07:18:04;;;;;;;12.80;10.10;;;1.50;99.90;;;;;;6194526;22;20352;-82
2022/02/13 07:20:29;;;;;;;13.50;9.80;;;1.60;99.90;;;;;;6171332;22;20019;-82
2022/02/13 07:22:56;;;;;;;12.90;10.00;;;1.60;99.90;;;;;;6192311;22;20020;-86
2022/02/13 07:25:23;;;;;;;12.67;9.80;;;1.70;99.90;;;;;;6219181;22;20456;-85
2022/02/13 07:27:49;;;;;;;11.73;9.80;;;1.70;99.90;;;;;;6170034;22;20015;-81
2022/02/13 07:30:15;;;;;;;13.00;10.00;;;1.80;99.90;;;;;;6220345;22;20334;-81
2022/02/13 07:32:42;;;;;;;11.20;9.90;;;1.80;99.90;;;;;;6219639;22;20023;-81
2022/02/13 07:35:09;;;;;;;13.73;10.50;;;1.90;99.90;;;;;;6219179;22;20038;-81
2022/02/13 07:37:35;;;;;;;13.23;10.20;;;1.90;99.90;;;;;;6219036;22;20499;-81
2022/02/13 07:40:02;;;;;;;11.80;9.47;;;2.00;99.90;;;;;;6193027;22;20317;-81
2022/02/13 07:42:28;;;;;;;12.77;8.90;;;2.00;99.90;;;;;;6194841;22;20019;-81
2022/02/13 07:44:54;;;;;;;12.00;9.47;;;2.00;99.90;;;;;;6243636;22;20066;-81
2022/02/13 07:47:20;;;;;;;14.50;10.63;;;2.10;99.90;;;;;;6218749;22;20023;-82
2022/02/13 07:49:46;;;;;;;11.80;9.53;;;2.10;99.90;;;;;;6243765;22;20020;-83
2022/02/13 07:52:12;;;;;;;11.90;9.33;;;2.20;99.90;;;;;;6218826;22;20530;-82
2022/02/13 07:54:39;;;;;;;12.83;9.67;;;2.20;99.90;;;;;;6244653;22;20015;-81
2022/02/13 07:57:09;;;;;;;12.07;9.27;;;2.20;99.90;;;;;;6194287;22;20084;-80
2022/02/13 07:59:35;;;;;;;12.40;9.57;;;2.20;99.90;;;;;;6243750;22;20058;-82
2022/02/13 08:02:01;;;;;;;11.93;9.53;;;2.20;99.90;;;;;;6241739;22;20015;-83
2022/02/13 08:04:28;;;;;;;12.43;10.00;;;2.20;99.90;;;;;;6169840;22;20089;-82
2022/02/13 08:06:54;;;;;;;12.63;9.10;;;2.20;99.90;;;;;;6193595;22;20384;-82
2022/02/13 08:09:19;;;;;;;12.30;9.60;;;2.30;99.90;;;;;;6218721;22;20051;-82
2022/02/13 08:11:45;;;;;;;12.33;9.17;;;2.30;99.90;;;;;;6193435;22;20066;-81
2022/02/13 08:14:11;;;;;;;11.17;8.83;;;2.30;99.90;;;;;;6218284;22;20028;-81
2022/02/13 08:16:37;;;;;;;11.47;9.07;;;2.30;99.90;;;;;;6221000;22;20022;-81
2022/02/13 08:19:02;;;;;;;10.27;9.13;;;2.30;99.90;;;;;;6218486;22;20023;-81
2022/02/13 08:21:28;;;;;;;12.40;9.53;;;2.30;99.90;;;;;;6169496;22;20027;-81
2022/02/13 08:23:54;;;;;;;11.27;9.00;;;2.40;99.90;;;;;;6217616;22;20377;-81
2022/02/13 08:26:20;;;;;;;12.50;9.73;;;2.30;99.90;;;;;;6218863;22;20352;-82
2022/02/13 08:28:46;;;;;;;12.30;10.00;;;2.40;99.90;;;;;;6191073;22;20482;-82
2022/02/13 08:31:13;;;;;;;12.90;9.40;;;2.40;99.90;;;;;;6217668;22;20051;-81
2022/02/13 08:33:41;;;;;;;11.93;8.93;;;2.40;99.90;;;;;;6217763;22;20047;-81
2022/02/13 08:36:07;;;;;;;10.80;8.93;;;2.50;99.90;;;;;;6217029;22;20016;-80
2022/02/13 08:38:33;;;;;;;12.00;9.40;;;2.50;99.90;;;;;;6192099;22;20479;-81
2022/02/13 08:41:00;;;;;;;12.07;9.37;;;2.50;99.90;;;;;;6216847;22;20015;-82
2022/02/13 08:43:26;;;;;;;14.30;9.80;;;2.50;99.90;;;;;;6168461;22;20333;-83
2022/02/13 08:45:54;;;;;;;12.03;9.73;;;2.50;99.90;;;;;;6191991;22;20016;-81
2022/02/13 08:48:22;;;;;;;12.50;8.90;;;2.70;99.90;;;;;;6217977;22;20137;-81
2022/02/13 08:50:49;;;;;;;12.57;8.40;;;2.70;99.90;;;;;;6215950;22;20019;-80
2022/02/13 08:53:14;;;;;;;10.17;8.97;;;2.80;99.90;;;;;;6191906;22;20023;-81
2022/02/13 08:55:41;;;;;;;12.93;9.20;;;2.80;99.90;;;;;;6192757;22;20463;-81
2022/02/13 08:58:07;;;;;;;10.20;8.83;;;2.90;99.90;;;;;;6192399;22;20023;-83
2022/02/13 09:00:33;;;;;;;11.63;9.57;;;2.90;99.90;;;;;;6217537;22;20468;-84
2022/02/13 09:02:59;;;;;;;12.73;9.00;;;2.90;99.90;;;;;;6216490;22;20012;-82
2022/02/13 09:05:25;;;;;;;12.80;9.70;;;2.90;99.90;;;;;;6191699;22;20023;-83
2022/02/13 09:07:51;;;;;;;10.80;8.63;;;3.00;99.90;;;;;;6215815;22;20026;-83
2022/02/13 09:10:19;;;;;;;11.90;9.63;;;3.10;99.90;;;;;;6241367;22;20455;-82
2022/02/13 09:12:48;;;;;;;11.77;9.00;;;3.10;99.90;;;;;;6193274;22;20019;-82
2022/02/13 09:15:14;;;;;;;9.13;8.17;;;3.20;99.90;;;;;;6217619;22;20132;-82
2022/02/13 09:17:40;;;;;;;10.20;8.97;;;3.20;99.90;;;;;;6167149;22;20094;-80
2022/02/13 09:20:08;;;;;;;11.07;8.60;;;3.20;99.90;;;;;;6192056;22;20584;-82
2022/02/13 09:22:34;;;;;;;11.13;8.73;;;3.30;99.90;;;;;;6218023;22;20019;-81
2022/02/13 09:25:00;;;;;;;11.20;9.10;;;3.40;99.90;;;;;;6241525;22;20020;-83
2022/02/13 09:27:26;;;;;;;11.10;9.30;;;3.40;99.90;;;;;;6213926;22;20016;-83
2022/02/13 09:29:52;;;;;;;11.00;8.60;;;3.40;99.90;;;;;;6190302;22;20054;-83
2022/02/13 09:32:19;;;;;;;11.73;8.93;;;3.50;99.90;;;;;;6191369;22;20019;-82
2022/02/13 09:34:45;;;;;;;13.50;9.03;;;3.50;99.90;;;;;;6167598;22;20027;-83
2022/02/13 09:37:11;;;;;;;11.07;9.47;;;3.60;99.90;;;;;;6216906;22;20019;-82
2022/02/13 09:39:37;;;;;;;11.17;9.13;;;3.70;99.90;;;;;;6191647;22;20019;-83
2022/02/13 09:42:03;;;;;;;13.50;9.13;;;3.80;99.90;;;;;;6208534;23;20215;-82
2022/02/13 09:44:29;;;;;;;9.93;8.80;;;3.80;99.90;;;;;;6186209;23;20027;-82
2022/02/13 09:46:55;;;;;;;11.50;9.20;;;3.80;99.90;;;;;;6187306;23;20012;-82
2022/02/13 09:49:24;;;;;;;9.83;8.67;;;3.80;99.90;;;;;;6211412;23;20110;-83
2022/02/13 09:51:50;;;;;;;10.13;8.53;;;3.80;99.90;;;;;;6187735;23;20071;-81
2022/02/13 09:54:16;;;;;;;11.90;8.63;;;3.90;99.90;;;;;;6236200;23;20337;-80
2022/02/13 09:56:43;;;;;;;12.10;8.63;;;3.90;99.90;;;;;;6211880;23;20020;-83
2022/02/13 09:59:09;;;;;;;10.63;8.67;;;4.00;99.90;;;;;;6211834;23;20020;-82
2022/02/13 10:01:47;;;;;;;11.53;8.53;;;4.00;99.90;;;;;;6211880;23;20073;-82
2022/02/13 10:04:13;;;;;;;10.03;8.30;;;4.00;99.90;;;;;;6212845;23;20112;-81
2022/02/13 10:06:40;;;;;;;11.50;8.70;;;4.10;99.90;;;;;;6238247;23;20023;-82
2022/02/13 10:09:07;;;;;;;13.00;9.00;;;4.10;99.90;;;;;;6211845;23;20016;-82
2022/02/13 10:11:36;;;;;;;10.77;8.00;;;4.10;99.90;;;;;;6236451;23;20016;-82
2022/02/13 10:14:05;;;;;;;10.77;8.53;;;4.10;99.90;;;;;;6211765;23;20031;-82
2022/02/13 10:16:31;;;;;;;9.67;8.67;;;4.20;99.90;;;;;;6211137;23;20020;-82
2022/02/13 10:19:05;;;;;;;10.30;8.33;;;4.20;99.90;;;;;;6211795;23;20016;-82
2022/02/13 10:21:42;;;;;;;10.73;8.60;;;4.30;99.90;;;;;;6210362;23;20024;-81
2022/02/13 10:24:25;;;;;;;11.33;8.90;;;4.40;99.90;;;;;;6208404;23;20352;-82
2022/02/13 10:26:56;;;;;;;11.27;8.70;;;4.50;99.90;;;;;;6210973;23;20429;-83
2022/02/13 10:29:27;;;;;;;11.13;8.27;;;4.50;99.90;;;;;;6212292;23;20035;-84
2022/02/13 10:32:15;;;;;;;10.07;7.93;;;4.50;99.90;;;;;;6235716;23;20023;-81
2022/02/13 10:34:56;;;;;;;8.83;7.63;;;4.60;99.90;;;;;;6236777;23;20020;-83
2022/02/13 10:37:41;;;;;;;9.93;7.90;;;4.80;99.90;;;;;;6209357;23;20022;-83
2022/02/13 10:40:08;;;;;;;9.93;8.20;;;4.80;99.90;;;;;;6209290;22;20382;-83
2022/02/13 10:42:34;;;;;;;10.40;7.53;;;4.90;99.90;;;;;;6211486;22;20048;-83
2022/02/13 10:45:23;;;;;;;11.47;8.20;;;5.00;99.90;;;;;;6236013;22;20047;-82
2022/02/13 10:47:51;;;;;;;10.40;7.90;;;5.10;99.90;;;;;;6237844;22;20215;-81
2022/02/13 10:50:18;;;;;;;11.07;8.37;;;5.00;99.90;;;;;;6242050;22;20027;-84
2022/02/13 10:52:49;;;;;;;10.57;8.03;;;5.10;99.90;;;;;;6186770;22;20102;-81
2022/02/13 10:55:16;;;;;;;9.73;7.67;;;5.20;99.90;;;;;;6210749;22;20043;-84
2022/02/13 10:57:42;;;;;;;10.73;7.50;;;5.20;99.90;;;;;;6212918;22;20023;-80
2022/02/13 11:00:14;;;;;;;10.13;7.50;;;5.30;99.90;;;;;;6236432;22;20448;-83
2022/02/13 11:02:40;;;;;;;10.37;8.00;;;5.30;99.90;;;;;;6186474;22;20047;-83
2022/02/13 11:05:09;;;;;;;11.70;8.40;;;5.40;99.90;;;;;;6212623;22;20027;-84
2022/02/13 11:07:41;;;;;;;10.00;7.90;;;5.40;99.90;;;;;;6191517;22;20343;-82
2022/02/13 11:10:17;;;;;;;9.90;7.73;;;5.40;99.90;;;;;;6214830;22;20094;-82
2022/02/13 11:12:44;;;;;;;10.00;7.53;;;5.50;99.90;;;;;;6241863;22;20054;-81
2022/02/13 11:15:15;;;;;;;9.27;8.03;;;5.50;99.90;;;;;;6217495;22;20020;-83
2022/02/13 11:17:44;;;;;;;10.23;7.87;;;5.50;99.90;;;;;;6192657;22;20016;-83
2022/02/13 11:20:17;;;;;;;11.43;7.60;;;5.60;99.90;;;;;;6215422;22;20073;-79
2022/02/13 11:22:47;;;;;;;9.20;7.33;;;5.60;99.90;;;;;;6243007;22;20015;-82
2022/02/13 11:25:13;;;;;;;11.35;8.43;;;5.60;99.90;;;;;;6216661;22;20012;-85
2022/02/13 11:27:59;;;;;;;11.80;8.23;;;5.80;99.90;;;;;;6191086;22;20023;-81
2022/02/13 11:30:45;;;;;;;9.60;7.87;;;5.70;99.90;;;;;;6215253;22;20078;-80
2022/02/13 11:33:23;;;;;;;10.27;8.10;;;5.70;99.90;;;;;;6241973;22;20019;-82
2022/02/13 11:36:07;;;;;;;9.83;8.10;;;5.80;99.90;;;;;;6241794;22;20016;-83
2022/02/13 11:38:48;;;;;;;11.98;8.27;;;5.80;99.90;;;;;;6192678;22;20016;-84
2022/02/13 11:41:21;;;;;;;9.90;7.60;;;6.10;99.90;;;;;;6217110;22;20016;-83
2022/02/13 11:43:53;;;;;;;9.67;7.93;;;6.20;99.90;;;;;;6217566;22;20016;-81
2022/02/13 11:46:30;;;;;;;10.90;8.33;;;6.30;99.90;;;;;;6240742;22;20020;-82
2022/02/13 11:49:02;;;;;;;9.70;7.50;;;6.40;99.90;;;;;;6215009;22;20016;-83
2022/02/13 11:51:46;;;;;;;10.00;7.78;;;6.40;99.90;;;;;;6243635;22;20054;-84
2022/02/13 11:54:44;;;;;;;12.40;7.65;;;6.50;99.90;;;;;;6242134;22;20142;-83
2022/02/13 11:57:19;;;;;;;9.10;7.97;;;6.50;99.90;;;;;;6242175;22;20019;-82
2022/02/13 12:00:00;;;;;;;9.40;7.45;;;6.60;99.90;;;;;;6217866;22;20016;-82
2022/02/13 12:02:34;;;;;;;10.15;8.07;;;6.70;99.90;;;;;;6217793;22;20023;-82
2022/02/13 12:05:03;;;;;;;10.07;7.05;;;6.80;99.90;;;;;;6242049;22;20015;-79
2022/02/13 12:07:55;;;;;;;8.77;7.38;;;6.90;99.90;;;;;;6218207;22;20033;-82
2022/02/13 12:10:45;;;;;;;9.52;8.23;;;6.90;99.90;;;;;;6215945;22;20019;-83
2022/02/13 12:13:16;;;;;;;9.30;7.68;;;7.00;99.90;;;;;;6242349;22;20327;-82
2022/02/13 12:15:51;;;;;;;11.70;8.30;;;7.00;99.90;;;;;;6217989;22;20019;-83
2022/02/13 12:18:17;;;;;;;8.73;7.65;;;7.10;99.90;;;;;;6242627;22;20019;-82
2022/02/13 12:20:46;;;;;;;10.15;7.47;;;7.20;99.90;;;;;;6243371;22;20016;-84
2022/02/13 12:23:18;;;;;;;10.40;8.20;;;7.20;99.90;;;;;;6192069;22;20016;-83
2022/02/13 12:25:46;;;;;;;8.15;6.95;;;7.30;99.90;;;;;;6243234;22;20020;-82
2022/02/13 12:28:14;;;;;;;8.88;6.95;;;7.40;99.90;;;;;;6193406;22;20077;-83
2022/02/13 12:30:54;;;;;;;8.15;6.88;;;7.50;99.90;;;;;;6217766;22;20016;-81
2022/02/13 12:33:25;;;;;;;;;;;7.50;99.90;;;;;;6217767;22;20055;-85
2022/02/13 12:35:52;;;;;;;7.68;6.40;;;7.60;99.80;;;;;;6219601;22;20294;-83
2022/02/13 12:38:18;;;;;;;8.80;6.97;;;7.60;99.90;;;;;;6194074;22;20020;-82
2022/02/13 12:40:45;;;;;;;8.48;6.32;;;7.70;99.20;;;;;;6193562;22;20063;-82
2022/02/13 12:43:14;;;;;;;7.97;6.32;;;7.70;98.30;;;;;;6218656;22;20472;-82
2022/02/13 12:45:42;;;;;;;7.95;6.35;;;7.80;97.20;;;;;;6218907;22;20012;-84
2022/02/13 12:48:10;;;;;;;8.02;7.22;;;7.80;97.90;;;;;;6219000;22;20024;-81